createdAt,value
2018-11-20T00:00:34.142Z,31.70
2018-11-20T00:01:34.448Z,28.20
2018-11-20T00:02:34.952Z,30.60
2018-11-20T00:03:35.961Z,31.60
2018-11-20T00:04:34.947Z,30.90
2018-11-20T00:05:35.427Z,31.70
2018-11-20T00:06:35.941Z,30.80
2018-11-20T00:07:35.458Z,32.00
2018-11-20T00:08:34.939Z,31.20
2018-11-20T00:09:55.036Z,32.70
2018-11-20T00:10:35.244Z,32.80
2018-11-20T00:11:35.952Z,32.90
2018-11-20T00:12:34.526Z,32.00
2018-11-20T00:13:37.445Z,32.80
2018-11-20T00:14:35.904Z,32.90
2018-11-20T00:15:46.962Z,29.70
2018-11-20T00:16:36.404Z,29.30
2018-11-20T00:17:36.512Z,30.40
2018-11-20T00:18:39.448Z,28.00
2018-11-20T00:19:43.448Z,31.10
2018-11-20T00:22:08.111Z,32.20
2018-11-20T00:23:11.006Z,31.60
2018-11-20T00:24:10.063Z,31.40
2018-11-20T00:25:10.561Z,31.60
2018-11-20T00:26:12.526Z,31.50
2018-11-20T00:27:12.525Z,26.60
2018-11-20T00:28:18.008Z,30.30
2018-11-20T00:29:30.986Z,30.80
2018-11-20T00:30:09.457Z,32.40
2018-11-20T00:31:25.524Z,31.50
2018-11-20T00:32:13.527Z,32.00
2018-11-20T00:33:11.531Z,32.10
2018-11-20T00:34:18.069Z,32.20
2018-11-20T00:35:10.274Z,31.40
2018-11-20T00:36:10.474Z,30.50
2018-11-20T00:37:13.480Z,33.00
2018-11-20T00:38:12.540Z,31.70
2018-11-20T00:39:15.512Z,33.30
2018-11-20T00:40:12.485Z,33.90
2018-11-20T00:41:15.998Z,31.60
2018-11-20T00:42:13.028Z,32.00
2018-11-20T00:43:11.640Z,31.70
2018-11-20T00:44:12.491Z,32.30
2018-11-20T00:45:12.370Z,32.30
2018-11-20T00:46:14.038Z,29.70
2018-11-20T00:47:28.024Z,31.40
2018-11-20T00:48:28.043Z,32.70
2018-11-20T00:49:18.499Z,32.00
2018-11-20T00:50:12.728Z,31.90
2018-11-20T00:51:16.561Z,33.00
2018-11-20T00:52:20.048Z,30.50
2018-11-20T00:53:16.069Z,30.60
2018-11-20T00:54:17.025Z,31.70
2018-11-20T00:55:15.523Z,30.00
2018-11-20T00:56:15.825Z,31.30
2018-11-20T00:57:16.071Z,31.00
2018-11-20T00:58:18.031Z,31.60
2018-11-20T00:59:16.491Z,31.70
2018-11-20T01:00:14.700Z,30.90
2018-11-20T01:01:17.549Z,32.40
2018-11-20T01:02:19.029Z,31.40
2018-11-20T01:03:15.364Z,30.20
2018-11-20T01:04:16.976Z,31.10
2018-11-20T01:05:16.977Z,31.30
2018-11-20T01:06:20.479Z,31.70
2018-11-20T01:07:15.949Z,28.00
2018-11-20T01:08:20.039Z,28.60
2018-11-20T01:09:19.058Z,31.10
2018-11-20T01:10:24.024Z,31.70
2018-11-20T01:11:18.530Z,32.10
2018-11-20T01:12:16.864Z,32.20
2018-11-20T01:13:19.022Z,32.40
2018-11-20T01:14:21.022Z,32.10
2018-11-20T01:15:25.030Z,32.00
2018-11-20T01:16:19.024Z,31.20
2018-11-20T01:17:19.526Z,31.30
2018-11-20T01:18:18.728Z,32.80
2018-11-20T01:19:42.523Z,31.90
2018-11-20T01:20:20.189Z,31.20
2018-11-20T01:21:18.324Z,26.60
2018-11-20T01:22:20.995Z,30.50
2018-11-20T01:23:21.546Z,29.40
2018-11-20T01:24:21.138Z,32.60
2018-11-20T01:25:22.539Z,31.00
2018-11-20T01:26:27.199Z,31.60
2018-11-20T01:27:19.354Z,32.10
2018-11-20T01:28:23.033Z,31.00
2018-11-20T01:29:21.521Z,30.80
2018-11-20T01:30:23.520Z,30.00
2018-11-20T01:31:22.484Z,30.10
2018-11-20T01:32:27.051Z,31.70
2018-11-20T01:33:20.297Z,29.30
2018-11-20T01:34:20.392Z,30.30
2018-11-20T01:35:24.550Z,30.10
2018-11-20T01:36:22.524Z,31.20
2018-11-20T01:37:43.527Z,31.70
2018-11-20T01:38:23.026Z,29.40
2018-11-20T01:39:21.231Z,29.60
2018-11-20T01:40:23.023Z,30.50
2018-11-20T01:41:26.526Z,31.30
2018-11-20T01:42:23.482Z,30.70
2018-11-20T01:43:23.541Z,31.90
2018-11-20T01:44:23.017Z,31.40
2018-11-20T01:45:24.023Z,29.40
2018-11-20T01:46:24.032Z,30.50
2018-11-20T01:47:26.048Z,29.20
2018-11-20T01:48:24.523Z,30.10
2018-11-20T01:49:22.862Z,31.20
2018-11-20T01:50:25.026Z,30.60
2018-11-20T01:51:23.289Z,29.80
2018-11-20T01:52:24.458Z,29.60
2018-11-20T01:53:24.111Z,28.30
2018-11-20T01:54:23.785Z,29.80
2018-11-20T01:55:25.560Z,28.30
2018-11-20T01:56:28.022Z,30.30
2018-11-20T01:57:26.004Z,30.30
2018-11-20T01:58:24.516Z,29.40
2018-11-20T01:59:24.703Z,32.00
2018-11-20T02:00:26.526Z,30.00
2018-11-20T02:01:27.480Z,29.60
2018-11-20T02:02:25.188Z,30.10
2018-11-20T02:03:25.432Z,29.60
2018-11-20T02:04:33.541Z,30.00
2018-11-20T02:05:25.739Z,30.90
2018-11-20T02:06:27.526Z,29.60
2018-11-20T02:07:27.978Z,30.40
2018-11-20T02:08:28.026Z,30.90
2018-11-20T02:09:28.023Z,29.00
2018-11-20T02:10:34.871Z,29.10
2018-11-20T02:11:28.522Z,30.00
2018-11-20T02:12:38.028Z,29.10
2018-11-20T02:13:35.047Z,29.30
2018-11-20T02:14:27.372Z,28.60
2018-11-20T02:15:28.576Z,26.90
2018-11-20T02:16:31.524Z,29.90
2018-11-20T02:17:34.549Z,29.40
2018-11-20T02:18:34.049Z,30.30
2018-11-20T02:19:36.469Z,31.50
2018-11-20T02:20:29.007Z,30.10
2018-11-20T02:21:30.976Z,30.10
2018-11-20T02:22:29.486Z,27.30
2018-11-20T02:23:28.948Z,30.60
2018-11-20T02:24:41.025Z,31.10
2018-11-20T02:25:31.039Z,29.30
2018-11-20T02:26:29.861Z,31.00
2018-11-20T02:27:37.524Z,31.90
2018-11-20T02:28:29.849Z,32.40
2018-11-20T02:29:32.523Z,30.40
2018-11-20T02:30:30.104Z,32.30
2018-11-20T02:31:34.019Z,30.60
2018-11-20T02:32:30.472Z,30.10
2018-11-20T02:33:32.542Z,27.80
2018-11-20T02:34:32.537Z,30.60
2018-11-20T02:35:34.523Z,29.40
2018-11-20T02:36:33.975Z,31.00
2018-11-20T02:37:31.344Z,30.40
2018-11-20T02:38:32.507Z,29.40
2018-11-20T02:39:31.573Z,30.10
2018-11-20T02:40:33.923Z,30.90
2018-11-20T02:41:31.993Z,31.80
2018-11-20T02:42:35.009Z,31.60
2018-11-20T02:43:35.485Z,31.00
2018-11-20T02:44:32.570Z,30.20
2018-11-20T02:45:34.518Z,32.30
2018-11-20T02:46:35.531Z,31.70
2018-11-20T02:47:37.021Z,32.20
2018-11-20T02:48:33.247Z,31.90
2018-11-20T02:49:34.339Z,31.10
2018-11-20T02:50:33.545Z,31.60
2018-11-20T02:51:49.528Z,30.70
2018-11-20T02:52:41.532Z,31.30
2018-11-20T02:53:36.018Z,30.60
2018-11-20T02:54:34.260Z,30.40
2018-11-20T02:55:36.026Z,31.30
2018-11-20T02:56:36.031Z,32.20
2018-11-20T02:57:34.613Z,30.70
2018-11-20T02:58:44.478Z,31.80
2018-11-20T02:59:55.950Z,31.70
2018-11-20T03:00:39.024Z,30.70
2018-11-20T03:01:42.979Z,31.50
2018-11-20T03:02:37.521Z,32.10
2018-11-20T03:03:37.083Z,33.20
2018-11-20T03:04:37.538Z,31.50
2018-11-20T03:05:37.524Z,32.30
2018-11-20T03:06:40.038Z,31.20
2018-11-20T03:07:40.025Z,32.40
2018-11-20T03:08:52.021Z,32.10
2018-11-20T03:09:38.034Z,31.70
2018-11-20T03:10:59.563Z,32.10
2018-11-20T03:11:40.551Z,32.00
2018-11-20T03:12:38.523Z,30.30
2018-11-20T03:13:59.221Z,29.90
2018-11-20T03:14:39.023Z,31.20
2018-11-20T03:15:53.020Z,30.20
2018-11-20T03:16:58.674Z,31.20
2018-11-20T03:17:38.975Z,31.20
2018-11-20T03:18:48.523Z,28.80
2018-11-20T03:19:41.025Z,30.10
2018-11-20T03:20:39.975Z,31.30
2018-11-20T03:21:41.003Z,29.90
2018-11-20T03:22:38.603Z,29.70
2018-11-20T03:23:38.802Z,31.70
2018-11-20T03:24:42.523Z,31.40
2018-11-20T03:25:43.020Z,31.70
2018-11-20T03:26:41.031Z,29.90
2018-11-20T03:27:43.980Z,31.70
2018-11-20T03:28:41.521Z,29.70
2018-11-20T03:29:41.528Z,31.30
2018-11-20T03:30:42.486Z,29.70
2018-11-20T03:31:48.025Z,30.40
2018-11-20T03:32:40.365Z,30.50
2018-11-20T03:33:56.520Z,31.50
2018-11-20T03:34:42.522Z,31.60
2018-11-20T03:35:40.868Z,30.80
2018-11-20T03:36:42.534Z,31.30
2018-11-20T03:37:43.019Z,30.50
2018-11-20T03:38:43.020Z,29.80
2018-11-20T03:39:43.476Z,29.30
2018-11-20T03:40:43.526Z,30.10
2018-11-20T03:41:43.007Z,26.60
2018-11-20T03:42:42.898Z,29.10
2018-11-20T03:43:43.518Z,28.80
2018-11-20T03:44:44.035Z,30.40
2018-11-20T03:45:44.024Z,28.90
2018-11-20T03:46:43.367Z,29.50
2018-11-20T03:47:44.595Z,31.20
2018-11-20T03:48:42.777Z,28.70
2018-11-20T03:49:44.526Z,27.10
2018-11-20T03:50:44.143Z,26.50
2018-11-20T03:51:45.047Z,28.50
2018-11-20T03:52:43.997Z,28.00
2018-11-20T03:53:45.527Z,29.40
2018-11-20T03:54:45.522Z,28.70
2018-11-20T03:55:48.472Z,30.30
2018-11-20T03:56:45.064Z,30.10
2018-11-20T03:57:48.020Z,29.10
2018-11-20T03:58:48.826Z,28.20
2018-11-20T03:59:46.559Z,29.60
2018-11-20T04:00:47.105Z,28.20
2018-11-20T04:01:45.091Z,29.10
2018-11-20T04:02:47.045Z,28.70
2018-11-20T04:03:46.076Z,30.70
2018-11-20T04:04:45.669Z,29.10
2018-11-20T04:05:47.521Z,28.80
2018-11-20T04:06:48.055Z,29.50
2018-11-20T04:07:50.039Z,27.60
2018-11-20T04:08:50.052Z,30.10
2018-11-20T04:09:53.549Z,28.30
2018-11-20T04:10:47.755Z,29.10
2018-11-20T04:11:47.004Z,29.60
2018-11-20T04:12:50.018Z,29.30
2018-11-20T04:13:48.246Z,30.50
2018-11-20T04:14:47.328Z,30.00
2018-11-20T04:15:54.026Z,30.90
2018-11-20T04:16:51.520Z,28.90
2018-11-20T04:17:47.871Z,30.30
2018-11-20T04:18:48.055Z,29.00
2018-11-20T04:19:54.067Z,28.80
2018-11-20T04:20:48.400Z,30.00
2018-11-20T04:21:52.516Z,29.10
2018-11-20T04:22:53.527Z,28.40
2018-11-20T04:23:50.512Z,29.30
2018-11-20T04:25:11.523Z,28.10
2018-11-20T04:25:51.024Z,30.90
2018-11-20T04:27:05.045Z,30.70
2018-11-20T04:28:10.493Z,30.80
2018-11-20T04:28:53.848Z,32.00
2018-11-20T04:29:50.905Z,31.30
2018-11-20T04:30:51.524Z,31.70
2018-11-20T04:31:52.035Z,30.10
2018-11-20T04:32:53.073Z,29.80
2018-11-20T04:33:50.545Z,31.00
2018-11-20T04:34:52.471Z,30.70
2018-11-20T04:35:53.488Z,30.40
2018-11-20T04:36:53.018Z,30.10
2018-11-20T04:37:53.023Z,31.90
2018-11-20T04:38:53.023Z,30.40
2018-11-20T04:39:51.593Z,29.90
2018-11-20T04:42:26.913Z,31.00
2018-11-20T04:43:25.971Z,30.90
2018-11-20T04:44:25.940Z,30.20
2018-11-20T04:45:39.924Z,31.20
2018-11-20T04:46:26.431Z,30.30
2018-11-20T04:47:28.429Z,31.20
2018-11-20T04:48:25.894Z,31.40
2018-11-20T04:49:24.989Z,31.40
2018-11-20T04:50:28.963Z,30.40
2018-11-20T04:51:40.938Z,29.80
2018-11-20T04:52:36.463Z,32.10
2018-11-20T04:53:25.661Z,32.10
2018-11-20T04:54:27.427Z,32.30
2018-11-20T04:55:33.927Z,31.40
2018-11-20T04:56:26.124Z,32.30
2018-11-20T04:57:30.101Z,31.70
2018-11-20T04:58:26.465Z,31.10
2018-11-20T04:59:28.441Z,31.40
2018-11-20T05:00:29.431Z,32.50
2018-11-20T05:01:30.427Z,32.30
2018-11-20T05:02:29.929Z,30.70
2018-11-20T05:03:33.938Z,32.90
2018-11-20T05:04:28.923Z,31.00
2018-11-20T05:05:28.532Z,31.70
2018-11-20T05:06:27.637Z,30.70
2018-11-20T05:07:35.430Z,32.30
2018-11-20T05:08:31.925Z,31.00
2018-11-20T05:09:29.925Z,31.60
2018-11-20T05:10:29.931Z,30.40
2018-11-20T05:11:31.198Z,31.90
2018-11-20T05:12:30.427Z,32.80
2018-11-20T05:13:51.425Z,32.80
2018-11-20T05:14:32.922Z,31.80
2018-11-20T05:15:30.144Z,30.80
2018-11-20T05:16:47.417Z,34.10
2018-11-20T05:17:29.384Z,32.50
2018-11-20T05:18:33.427Z,32.60
2018-11-20T05:19:31.431Z,32.90
2018-11-20T05:20:31.429Z,32.30
2018-11-20T05:21:37.923Z,32.60
2018-11-20T05:22:31.974Z,33.30
2018-11-20T05:23:31.337Z,31.30
2018-11-20T05:24:31.948Z,32.60
2018-11-20T05:25:30.644Z,32.60
2018-11-20T05:26:32.440Z,32.60
2018-11-20T05:27:32.133Z,31.10
2018-11-20T05:28:31.224Z,31.80
2018-11-20T05:29:53.951Z,32.70
2018-11-20T05:30:33.430Z,30.90
2018-11-20T05:31:37.628Z,32.70
2018-11-20T05:32:33.462Z,30.80
2018-11-20T05:33:33.886Z,32.00
2018-11-20T05:34:35.926Z,31.80
2018-11-20T05:35:37.925Z,31.80
2018-11-20T05:36:34.425Z,31.40
2018-11-20T05:37:37.323Z,30.80
2018-11-20T05:38:33.379Z,32.40
2018-11-20T05:39:33.978Z,32.50
2018-11-20T05:40:40.932Z,31.70
2018-11-20T05:42:02.915Z,33.60
2018-11-20T05:42:34.360Z,32.60
2018-11-20T05:43:33.564Z,31.70
2018-11-20T05:44:35.450Z,32.00
2018-11-20T05:45:33.951Z,32.00
2018-11-20T05:46:34.070Z,30.60
2018-11-20T05:47:35.347Z,33.20
2018-11-20T05:48:50.425Z,32.90
2018-11-20T05:49:35.647Z,34.20
2018-11-20T05:50:39.447Z,33.70
2018-11-20T05:51:36.429Z,31.40
2018-11-20T05:52:35.122Z,33.10
2018-11-20T05:53:39.381Z,31.50
2018-11-20T05:54:37.424Z,33.20
2018-11-20T05:55:36.918Z,31.60
2018-11-20T05:56:35.758Z,31.50
2018-11-20T05:57:40.878Z,32.40
2018-11-20T05:58:36.074Z,33.40
2018-11-20T05:59:36.916Z,33.10
2018-11-20T06:00:37.398Z,32.10
2018-11-20T06:01:38.717Z,32.50
2018-11-20T06:02:59.461Z,31.80
2018-11-20T06:03:37.196Z,31.80
2018-11-20T06:04:38.226Z,32.10
2018-11-20T06:05:38.921Z,33.40
2018-11-20T06:06:38.935Z,33.00
2018-11-20T06:07:41.879Z,32.20
2018-11-20T06:08:40.416Z,32.00
2018-11-20T06:09:39.426Z,30.30
2018-11-20T06:10:37.880Z,33.60
2018-11-20T06:11:40.888Z,32.20
2018-11-20T06:12:38.290Z,33.10
2018-11-20T06:13:40.870Z,34.20
2018-11-20T06:14:39.676Z,33.10
2018-11-20T06:15:40.423Z,31.90
2018-11-20T06:16:38.880Z,32.70
2018-11-20T06:17:39.147Z,32.70
2018-11-20T06:18:40.999Z,33.20
2018-11-20T06:19:42.921Z,32.20
2018-11-20T06:20:42.385Z,34.00
2018-11-20T06:21:41.423Z,33.20
2018-11-20T06:22:41.910Z,32.30
2018-11-20T06:23:41.437Z,32.70
2018-11-20T06:24:42.884Z,34.10
2018-11-20T06:25:43.926Z,33.20
2018-11-20T06:26:44.889Z,32.90
2018-11-20T06:27:41.602Z,33.00
2018-11-20T06:28:42.454Z,32.80
2018-11-20T06:29:44.941Z,34.20
2018-11-20T06:30:44.973Z,33.10
2018-11-20T06:31:56.928Z,33.40
2018-11-20T06:32:41.696Z,32.30
2018-11-20T06:33:41.645Z,31.50
2018-11-20T06:34:44.919Z,32.00
2018-11-20T06:35:43.920Z,32.00
2018-11-20T06:36:43.925Z,33.70
2018-11-20T06:38:03.247Z,33.40
2018-11-20T06:40:16.560Z,34.30
2018-11-20T06:41:16.579Z,33.60
2018-11-20T06:42:23.539Z,33.70
2018-11-20T06:43:17.056Z,32.50
2018-11-20T06:44:23.057Z,34.40
2018-11-20T06:45:36.625Z,32.90
2018-11-20T06:46:17.562Z,29.00
2018-11-20T06:47:18.124Z,32.00
2018-11-20T06:48:16.148Z,32.70
2018-11-20T06:49:20.056Z,32.10
2018-11-20T06:50:20.062Z,33.00
2018-11-20T06:51:19.513Z,34.00
2018-11-20T06:52:23.564Z,32.10
2018-11-20T06:53:17.314Z,32.50
2018-11-20T06:54:20.020Z,33.00
2018-11-20T06:55:20.019Z,33.80
2018-11-20T06:56:17.483Z,33.20
2018-11-20T06:57:19.688Z,33.10
2018-11-20T06:58:19.555Z,32.80
2018-11-20T06:59:19.564Z,32.50
2018-11-20T07:00:19.159Z,31.70
2018-11-20T07:01:20.717Z,31.70
2018-11-20T07:02:19.515Z,34.60
2018-11-20T07:03:20.563Z,31.00
2018-11-20T07:04:22.061Z,33.50
2018-11-20T07:05:19.601Z,33.70
2018-11-20T07:06:21.064Z,32.00
2018-11-20T07:07:21.174Z,33.00
2018-11-20T07:08:21.135Z,32.70
2018-11-20T07:09:25.555Z,28.50
2018-11-20T07:10:22.522Z,34.20
2018-11-20T07:11:21.562Z,33.60
2018-11-20T07:12:22.052Z,31.30
2018-11-20T07:13:25.017Z,31.40
2018-11-20T07:14:22.541Z,32.70
2018-11-20T07:15:22.671Z,31.80
2018-11-20T07:16:24.545Z,32.60
2018-11-20T07:17:21.997Z,33.00
2018-11-20T07:18:25.082Z,31.40
2018-11-20T07:19:23.053Z,33.20
2018-11-20T07:20:23.511Z,32.10
2018-11-20T07:21:37.559Z,33.10
2018-11-20T07:22:25.071Z,31.80
2018-11-20T07:23:21.985Z,32.90
2018-11-20T07:24:22.197Z,32.30
2018-11-20T07:25:22.389Z,32.00
2018-11-20T07:26:22.599Z,31.40
2018-11-20T07:27:24.613Z,32.70
2018-11-20T07:28:38.558Z,32.80
2018-11-20T07:29:27.081Z,32.90
2018-11-20T07:30:23.299Z,32.30
2018-11-20T07:31:27.070Z,31.70
2018-11-20T07:32:25.033Z,33.00
2018-11-20T07:33:27.556Z,33.60
2018-11-20T07:34:25.585Z,32.00
2018-11-20T07:35:24.085Z,32.10
2018-11-20T07:36:24.404Z,34.10
2018-11-20T07:37:28.735Z,33.80
2018-11-20T07:38:32.284Z,30.40
2018-11-20T07:39:28.562Z,29.80
2018-11-20T07:40:33.010Z,31.80
2018-11-20T07:41:25.121Z,32.00
2018-11-20T07:42:27.060Z,33.30
2018-11-20T07:43:26.596Z,33.20
2018-11-20T07:44:25.707Z,31.60
2018-11-20T07:45:42.199Z,32.80
2018-11-20T07:46:27.556Z,33.00
2018-11-20T07:47:28.095Z,32.30
2018-11-20T07:48:29.018Z,33.30
2018-11-20T07:49:28.057Z,33.80
2018-11-20T07:50:28.567Z,32.80
2018-11-20T07:51:31.613Z,34.00
2018-11-20T07:52:34.582Z,33.90
2018-11-20T07:53:27.140Z,34.30
2018-11-20T07:54:32.013Z,32.50
2018-11-20T07:55:31.114Z,33.80
2018-11-20T07:56:35.559Z,32.40
2018-11-20T07:57:29.642Z,33.80
2018-11-20T07:58:29.559Z,33.20
2018-11-20T07:59:28.140Z,33.40
2018-11-20T08:00:45.520Z,33.60
2018-11-20T08:01:30.101Z,33.30
2018-11-20T08:02:28.671Z,34.40
2018-11-20T08:03:28.867Z,34.00
2018-11-20T08:04:31.056Z,34.60
2018-11-20T08:05:33.055Z,34.60
2018-11-20T08:06:36.066Z,34.70
2018-11-20T08:07:31.553Z,33.80
2018-11-20T08:08:31.619Z,34.00
2018-11-20T08:09:30.025Z,34.10
2018-11-20T08:10:31.130Z,34.80
2018-11-20T08:11:30.209Z,34.00
2018-11-20T08:12:30.450Z,33.70
2018-11-20T08:13:31.556Z,35.90
2018-11-20T08:14:31.547Z,35.10
2018-11-20T08:15:32.594Z,35.40
2018-11-20T08:16:33.109Z,34.00
2018-11-20T08:17:33.042Z,33.60
2018-11-20T08:18:42.061Z,32.60
2018-11-20T08:19:31.646Z,31.90
2018-11-20T08:20:31.918Z,33.10
2018-11-20T08:21:32.517Z,33.80
2018-11-20T08:22:34.083Z,35.20
2018-11-20T08:23:32.305Z,33.80
2018-11-20T08:24:35.050Z,35.70
2018-11-20T08:25:32.651Z,34.30
2018-11-20T08:26:34.634Z,35.10
2018-11-20T08:27:34.562Z,31.70
2018-11-20T08:28:34.149Z,30.40
2018-11-20T08:29:35.067Z,34.10
2018-11-20T08:30:33.537Z,33.90
2018-11-20T08:31:36.515Z,34.40
2018-11-20T08:32:37.554Z,34.30
2018-11-20T08:33:37.602Z,34.30
2018-11-20T08:34:34.030Z,34.70
2018-11-20T08:35:35.174Z,34.90
2018-11-20T08:36:34.248Z,34.70
2018-11-20T08:37:36.113Z,34.80
2018-11-20T08:38:38.560Z,34.30
2018-11-20T08:39:34.751Z,36.20
2018-11-20T08:40:34.968Z,33.10
2018-11-20T08:41:35.170Z,33.50
2018-11-20T08:42:42.074Z,34.50
2018-11-20T08:43:37.129Z,34.30
2018-11-20T08:44:35.711Z,33.20
2018-11-20T08:45:35.921Z,34.10
2018-11-20T08:46:37.140Z,35.30
2018-11-20T08:47:37.349Z,35.50
2018-11-20T08:48:43.059Z,33.30
2018-11-20T08:49:41.016Z,35.30
2018-11-20T08:50:39.516Z,35.00
2018-11-20T08:51:36.854Z,34.10
2018-11-20T08:52:38.061Z,34.60
2018-11-20T08:53:43.291Z,34.20
2018-11-20T08:54:41.914Z,34.10
2018-11-20T08:55:41.607Z,33.40
2018-11-20T08:56:40.516Z,34.50
2018-11-20T08:57:42.563Z,34.30
2018-11-20T08:58:40.054Z,34.00
2018-11-20T08:59:39.013Z,33.70
2018-11-20T09:00:41.017Z,33.30
2018-11-20T09:01:38.607Z,33.00
2018-11-20T09:02:42.630Z,33.90
2018-11-20T09:03:39.880Z,31.80
2018-11-20T09:04:41.069Z,31.40
2018-11-20T09:05:41.065Z,32.90
2018-11-20T09:06:41.054Z,33.60
2018-11-20T09:07:43.054Z,34.00
2018-11-20T09:08:43.594Z,35.30
2018-11-20T09:09:39.814Z,29.20
2018-11-20T09:10:41.691Z,33.70
2018-11-20T09:11:40.198Z,31.10
2018-11-20T09:12:44.013Z,33.00
2018-11-20T09:13:40.629Z,32.90
2018-11-20T09:14:40.715Z,30.30
2018-11-20T09:15:44.580Z,31.90
2018-11-20T09:16:45.064Z,32.50
2018-11-20T09:17:41.264Z,32.10
2018-11-20T09:18:42.486Z,32.00
2018-11-20T09:19:45.558Z,30.60
2018-11-20T09:20:48.562Z,31.90
2018-11-20T09:22:04.553Z,31.40
2018-11-20T09:22:42.111Z,32.30
2018-11-20T09:23:42.324Z,32.60
2018-11-20T09:24:44.059Z,31.80
2018-11-20T09:26:05.586Z,33.10
2018-11-20T09:26:42.921Z,30.40
2018-11-20T09:27:51.072Z,31.20
2018-11-20T09:28:45.107Z,32.30
2018-11-20T09:29:45.094Z,31.30
2018-11-20T09:30:45.057Z,30.20
2018-11-20T09:31:44.703Z,30.90
2018-11-20T09:32:45.563Z,32.50
2018-11-20T09:33:44.037Z,32.50
2018-11-20T09:35:05.346Z,31.30
2018-11-20T09:35:45.543Z,32.80
2018-11-20T09:36:46.058Z,33.00
2018-11-20T09:37:47.540Z,33.70
2018-11-20T09:38:48.593Z,33.30
2018-11-20T09:39:46.608Z,32.40
2018-11-20T09:40:47.066Z,33.20
2018-11-20T09:41:49.059Z,33.10
2018-11-20T09:42:47.582Z,33.00
2018-11-20T09:43:48.566Z,33.40
2018-11-20T09:44:48.041Z,31.30
2018-11-20T09:45:46.228Z,32.60
2018-11-20T09:46:48.108Z,32.80
2018-11-20T09:47:46.561Z,32.20
2018-11-20T09:48:46.682Z,31.80
2018-11-20T09:49:51.710Z,32.30
2018-11-20T09:50:58.580Z,33.30
2018-11-20T09:51:49.523Z,33.90
2018-11-20T09:52:47.344Z,33.60
2018-11-20T09:53:53.357Z,33.80
2018-11-20T09:54:51.055Z,32.70
2018-11-20T09:55:47.763Z,33.40
2018-11-20T09:56:50.500Z,33.00
2018-11-20T09:57:48.135Z,32.30
2018-11-20T09:58:50.054Z,33.50
2018-11-20T09:59:50.094Z,34.30
2018-11-20T10:00:52.011Z,32.90
2018-11-20T10:01:52.013Z,33.00
2018-11-20T10:02:54.554Z,32.70
2018-11-20T10:04:00.056Z,33.60
2018-11-20T10:04:49.247Z,33.30
2018-11-20T10:05:51.090Z,32.70
2018-11-20T10:06:49.581Z,33.20
2018-11-20T10:07:57.561Z,33.00
2018-11-20T10:08:51.596Z,30.40
2018-11-20T10:09:50.067Z,30.80
2018-11-20T10:10:51.022Z,32.00
2018-11-20T10:11:52.043Z,32.90
2018-11-20T10:12:52.064Z,33.00
2018-11-20T10:13:53.608Z,32.30
2018-11-20T10:14:52.721Z,34.90
2018-11-20T10:15:50.905Z,32.20
2018-11-20T10:16:52.572Z,32.30
2018-11-20T10:17:55.067Z,34.00
2018-11-20T10:18:53.066Z,33.30
2018-11-20T10:19:53.070Z,33.40
2018-11-20T10:20:53.682Z,33.90
2018-11-20T10:21:53.570Z,33.20
2018-11-20T10:22:55.588Z,32.90
2018-11-20T10:23:52.115Z,33.80
2018-11-20T10:24:55.212Z,32.50
2018-11-20T10:25:52.739Z,34.90
2018-11-20T10:26:52.618Z,33.80
2018-11-20T10:28:00.570Z,33.80
2018-11-20T10:28:52.907Z,30.50
2018-11-20T10:29:56.033Z,33.30
2018-11-20T10:31:09.045Z,33.10
2018-11-20T10:31:54.414Z,32.40
2018-11-20T10:32:55.514Z,33.50
2018-11-20T10:34:09.712Z,32.30
2018-11-20T10:34:57.580Z,32.60
2018-11-20T10:35:55.598Z,34.60
2018-11-20T10:36:56.058Z,34.70
2018-11-20T10:37:55.811Z,35.40
2018-11-20T10:38:54.552Z,35.00
2018-11-20T10:39:56.597Z,33.00
2018-11-20T10:40:57.338Z,34.10
2018-11-20T10:41:55.012Z,36.40
2018-11-20T10:42:57.054Z,31.90
2018-11-20T10:44:11.054Z,34.40
2018-11-20T10:44:55.385Z,36.00
2018-11-20T10:45:59.640Z,33.00
2018-11-20T10:46:55.768Z,36.40
2018-11-20T10:48:03.553Z,32.50
2018-11-20T10:48:58.083Z,35.00
2018-11-20T10:49:56.293Z,34.40
2018-11-20T10:50:57.034Z,35.70
2018-11-20T10:51:57.553Z,35.30
2018-11-20T10:52:58.557Z,34.50
2018-11-20T10:54:19.561Z,34.60
2018-11-20T10:54:59.055Z,33.00
2018-11-20T10:56:22.055Z,33.50
2018-11-20T10:56:57.493Z,32.80
2018-11-20T10:57:59.592Z,31.80
2018-11-20T10:59:01.560Z,33.30
2018-11-20T11:00:01.554Z,29.60
2018-11-20T11:01:05.098Z,31.60
2018-11-20T11:02:00.065Z,33.10
2018-11-20T11:03:00.083Z,31.40
2018-11-20T11:04:00.594Z,31.70
2018-11-20T11:04:58.893Z,31.10
2018-11-20T11:06:00.553Z,32.40
2018-11-20T11:06:59.359Z,32.20
2018-11-20T11:07:59.476Z,30.80
2018-11-20T11:08:59.532Z,33.50
2018-11-20T11:10:01.563Z,32.40
2018-11-20T11:11:07.558Z,33.60
2018-11-20T11:12:03.628Z,32.10
2018-11-20T11:13:02.078Z,34.40
2018-11-20T11:14:04.053Z,31.60
2018-11-20T11:15:17.548Z,32.00
2018-11-20T11:16:03.550Z,33.20
2018-11-20T11:17:02.004Z,32.80
2018-11-20T11:18:01.111Z,32.40
2018-11-20T11:19:01.298Z,32.10
2018-11-20T11:20:03.072Z,31.20
2018-11-20T11:21:09.621Z,33.10
2018-11-20T11:22:06.183Z,32.50
2018-11-20T11:23:03.560Z,33.20
2018-11-20T11:24:02.132Z,32.30
2018-11-20T11:25:06.055Z,34.00
2018-11-20T11:26:02.507Z,33.10
2018-11-20T11:27:06.554Z,34.00
2018-11-20T11:28:02.960Z,29.40
2018-11-20T11:29:05.522Z,30.60
2018-11-20T11:30:05.056Z,30.90
2018-11-20T11:31:05.084Z,32.40
2018-11-20T11:32:06.110Z,32.60
2018-11-20T11:33:10.564Z,32.10
2018-11-20T11:34:08.153Z,32.80
2018-11-20T11:36:43.662Z,34.70
2018-11-20T11:37:36.096Z,33.40
2018-11-20T11:38:58.163Z,32.60
2018-11-20T11:39:37.523Z,32.20
2018-11-20T11:40:36.635Z,32.40
2018-11-20T11:41:36.733Z,32.40
2018-11-20T11:42:38.754Z,32.90
2018-11-20T11:43:41.700Z,32.10
2018-11-20T11:44:37.269Z,32.70
2018-11-20T11:45:37.475Z,32.80
2018-11-20T11:46:39.187Z,32.40
2018-11-20T11:47:39.701Z,29.40
2018-11-20T11:48:39.677Z,32.60
2018-11-20T11:49:38.230Z,31.30
2018-11-20T11:50:39.483Z,33.10
2018-11-20T11:51:40.129Z,33.70
2018-11-20T11:52:38.733Z,31.80
2018-11-20T11:53:40.684Z,32.50
2018-11-20T11:54:43.727Z,31.80
2018-11-20T11:55:41.178Z,31.50
2018-11-20T11:56:41.156Z,33.20
2018-11-20T11:57:39.622Z,32.80
2018-11-20T11:58:42.657Z,33.00
2018-11-20T11:59:39.998Z,31.90
2018-11-20T12:00:40.225Z,33.90
2018-11-20T12:05:16.836Z,34.60
2018-11-20T12:06:13.386Z,34.50
2018-11-20T12:07:15.339Z,35.40
2018-11-20T12:08:14.782Z,33.40
2018-11-20T12:09:29.840Z,32.90
2018-11-20T12:10:15.837Z,33.70
2018-11-20T12:11:15.310Z,30.10
2018-11-20T12:12:22.332Z,28.90
2018-11-20T12:13:43.336Z,29.40
2018-11-20T12:14:16.861Z,30.00
2018-11-20T12:15:37.851Z,30.70
2018-11-20T12:16:16.841Z,31.50
2018-11-20T12:17:16.842Z,30.80
2018-11-20T12:18:37.410Z,30.80
2018-11-20T12:19:21.289Z,30.20
2018-11-20T12:20:16.788Z,33.50
2018-11-20T12:21:23.839Z,30.80
2018-11-20T12:22:17.852Z,29.20
2018-11-20T12:23:17.863Z,28.60
2018-11-20T12:24:20.338Z,28.10
2018-11-20T12:25:16.528Z,29.10
2018-11-20T12:26:16.737Z,29.50
2018-11-20T12:27:31.845Z,27.80
2018-11-20T12:28:21.347Z,26.80
2018-11-20T12:29:21.957Z,27.10
2018-11-20T12:30:19.357Z,26.20
2018-11-20T12:31:18.797Z,27.70
2018-11-20T12:32:17.898Z,27.10
2018-11-20T12:33:26.800Z,26.50
2018-11-20T12:34:20.858Z,25.40
2018-11-20T12:35:33.131Z,25.70
2018-11-20T12:36:21.845Z,27.50
2018-11-20T12:37:44.339Z,29.00
2018-11-20T12:38:19.612Z,27.50
2018-11-20T12:39:30.112Z,26.80
2018-11-20T12:40:28.478Z,23.60
2018-11-20T12:41:22.321Z,25.50
2018-11-20T12:42:25.288Z,26.00
2018-11-20T12:43:19.880Z,26.60
2018-11-20T12:44:21.029Z,25.50
2018-11-20T12:45:22.849Z,26.10
2018-11-20T12:46:52.353Z,26.80
2018-11-20T12:47:24.566Z,25.70
2018-11-20T12:48:22.511Z,25.40
2018-11-20T12:49:21.890Z,25.20
2018-11-20T12:50:23.791Z,24.50
2018-11-20T12:51:21.155Z,24.80
2018-11-20T12:52:29.791Z,24.20
2018-11-20T12:53:21.532Z,25.70
2018-11-20T12:54:23.352Z,24.70
2018-11-20T12:55:23.337Z,25.00
2018-11-20T12:56:21.784Z,24.70
2018-11-20T12:57:21.905Z,23.70
2018-11-20T12:58:23.836Z,24.00
2018-11-20T12:59:28.859Z,24.00
2018-11-20T13:00:29.341Z,24.10
2018-11-20T13:01:24.289Z,23.00
2018-11-20T13:02:25.834Z,25.10
2018-11-20T13:03:24.835Z,23.20
2018-11-20T13:04:28.663Z,22.60